sensor_id;sensor_type;location;lat;lon;timestamp;P1;durP1;ratioP1;P2;durP2;ratioP2
23718;SDS011;43322;52.230;5.702;2023-07-28T00:00:10;31.27;;;19.70;;
23718;SDS011;43322;52.230;5.702;2023-07-28T00:02:37;31.67;;;18.88;;
23718;SDS011;43322;52.230;5.702;2023-07-28T00:05:05;38.15;;;21.05;;
23718;SDS011;43322;52.230;5.702;2023-07-28T00:07:32;34.30;;;21.15;;
23718;SDS011;43322;52.230;5.702;2023-07-28T00:10:01;31.50;;;19.27;;
23718;SDS011;43322;52.230;5.702;2023-07-28T00:12:27;31.00;;;20.73;;
23718;SDS011;43322;52.230;5.702;2023-07-28T00:14:54;32.42;;;18.30;;
23718;SDS011;43322;52.230;5.702;2023-07-28T00:17:21;36.85;;;21.60;;
23718;SDS011;43322;52.230;5.702;2023-07-28T00:19:48;30.00;;;20.17;;
23718;SDS011;43322;52.230;5.702;2023-07-28T00:22:16;38.85;;;22.80;;
23718;SDS011;43322;52.230;5.702;2023-07-28T00:24:42;36.60;;;21.60;;
23718;SDS011;43322;52.230;5.702;2023-07-28T00:27:09;40.63;;;22.83;;
23718;SDS011;43322;52.230;5.702;2023-07-28T00:29:37;41.90;;;24.52;;
23718;SDS011;43322;52.230;5.702;2023-07-28T00:32:05;37.03;;;22.67;;
23718;SDS011;43322;52.230;5.702;2023-07-28T00:34:32;45.70;;;24.85;;
23718;SDS011;43322;52.230;5.702;2023-07-28T00:36:58;39.95;;;24.20;;
23718;SDS011;43322;52.230;5.702;2023-07-28T00:39:26;35.45;;;23.40;;
23718;SDS011;43322;52.230;5.702;2023-07-28T00:41:53;41.03;;;24.92;;
23718;SDS011;43322;52.230;5.702;2023-07-28T00:44:20;47.33;;;26.42;;
23718;SDS011;43322;52.230;5.702;2023-07-28T00:46:46;45.60;;;26.88;;
23718;SDS011;43322;52.230;5.702;2023-07-28T00:49:13;39.65;;;23.92;;
23718;SDS011;43322;52.230;5.702;2023-07-28T00:51:40;46.72;;;27.40;;
23718;SDS011;43322;52.230;5.702;2023-07-28T00:54:07;47.90;;;26.38;;
23718;SDS011;43322;52.230;5.702;2023-07-28T00:56:35;42.88;;;26.25;;
23718;SDS011;43322;52.230;5.702;2023-07-28T00:59:02;38.95;;;25.80;;
23718;SDS011;43322;52.230;5.702;2023-07-28T01:01:29;41.67;;;25.63;;
23718;SDS011;43322;52.230;5.702;2023-07-28T01:03:56;41.10;;;25.55;;
23718;SDS011;43322;52.230;5.702;2023-07-28T01:06:25;42.75;;;27.35;;
23718;SDS011;43322;52.230;5.702;2023-07-28T01:09:02;41.97;;;26.73;;
23718;SDS011;43322;52.230;5.702;2023-07-28T01:11:29;47.58;;;25.90;;
23718;SDS011;43322;52.230;5.702;2023-07-28T01:13:57;43.35;;;26.38;;
23718;SDS011;43322;52.230;5.702;2023-07-28T01:16:24;44.13;;;26.13;;
23718;SDS011;43322;52.230;5.702;2023-07-28T01:18:51;41.80;;;25.83;;
23718;SDS011;43322;52.230;5.702;2023-07-28T01:21:20;43.70;;;25.77;;
23718;SDS011;43322;52.230;5.702;2023-07-28T01:23:52;44.65;;;25.40;;
23718;SDS011;43322;52.230;5.702;2023-07-28T01:26:31;35.20;;;23.70;;
23718;SDS011;43322;52.230;5.702;2023-07-28T01:28:59;43.28;;;25.40;;
23718;SDS011;43322;52.230;5.702;2023-07-28T01:31:26;40.65;;;23.58;;
23718;SDS011;43322;52.230;5.702;2023-07-28T01:33:53;34.13;;;23.05;;
23718;SDS011;43322;52.230;5.702;2023-07-28T01:36:20;38.97;;;24.67;;
23718;SDS011;43322;52.230;5.702;2023-07-28T01:38:47;35.00;;;22.85;;
23718;SDS011;43322;52.230;5.702;2023-07-28T01:41:13;35.08;;;23.95;;
23718;SDS011;43322;52.230;5.702;2023-07-28T01:43:41;44.25;;;25.92;;
23718;SDS011;43322;52.230;5.702;2023-07-28T01:46:08;38.03;;;24.15;;
23718;SDS011;43322;52.230;5.702;2023-07-28T01:48:34;40.97;;;24.67;;
23718;SDS011;43322;52.230;5.702;2023-07-28T01:51:01;44.10;;;23.88;;
23718;SDS011;43322;52.230;5.702;2023-07-28T01:53:28;41.58;;;24.10;;
23718;SDS011;43322;52.230;5.702;2023-07-28T01:55:54;36.10;;;23.15;;
23718;SDS011;43322;52.230;5.702;2023-07-28T01:58:21;38.03;;;23.23;;
23718;SDS011;43322;52.230;5.702;2023-07-28T02:00:49;34.65;;;22.85;;
23718;SDS011;43322;52.230;5.702;2023-07-28T02:03:16;39.28;;;23.02;;
23718;SDS011;43322;52.230;5.702;2023-07-28T02:05:42;38.45;;;24.50;;
23718;SDS011;43322;52.230;5.702;2023-07-28T02:08:09;32.78;;;21.70;;
23718;SDS011;43322;52.230;5.702;2023-07-28T02:10:36;37.42;;;22.73;;
23718;SDS011;43322;52.230;5.702;2023-07-28T02:13:02;31.88;;;20.65;;
23718;SDS011;43322;52.230;5.702;2023-07-28T02:15:29;39.50;;;22.35;;
23718;SDS011;43322;52.230;5.702;2023-07-28T02:17:57;32.45;;;20.77;;
23718;SDS011;43322;52.230;5.702;2023-07-28T02:20:23;46.45;;;23.15;;
23718;SDS011;43322;52.230;5.702;2023-07-28T02:22:50;35.90;;;21.48;;
23718;SDS011;43322;52.230;5.702;2023-07-28T02:25:17;38.35;;;21.58;;
23718;SDS011;43322;52.230;5.702;2023-07-28T02:27:43;35.65;;;21.33;;
23718;SDS011;43322;52.230;5.702;2023-07-28T02:30:10;34.03;;;20.02;;
23718;SDS011;43322;52.230;5.702;2023-07-28T02:32:37;32.22;;;20.88;;
23718;SDS011;43322;52.230;5.702;2023-07-28T02:35:05;32.17;;;18.80;;
23718;SDS011;43322;52.230;5.702;2023-07-28T02:37:32;34.75;;;20.83;;
23718;SDS011;43322;52.230;5.702;2023-07-28T02:39:59;39.80;;;21.00;;
23718;SDS011;43322;52.230;5.702;2023-07-28T02:42:26;44.65;;;22.05;;
23718;SDS011;43322;52.230;5.702;2023-07-28T02:44:52;32.17;;;19.65;;
23718;SDS011;43322;52.230;5.702;2023-07-28T02:47:19;28.98;;;19.60;;
23718;SDS011;43322;52.230;5.702;2023-07-28T02:49:45;39.70;;;21.20;;
23718;SDS011;43322;52.230;5.702;2023-07-28T02:52:13;39.22;;;20.23;;
23718;SDS011;43322;52.230;5.702;2023-07-28T02:54:40;36.85;;;20.77;;
23718;SDS011;43322;52.230;5.702;2023-07-28T02:57:07;39.50;;;20.23;;
23718;SDS011;43322;52.230;5.702;2023-07-28T02:59:33;39.85;;;21.90;;
23718;SDS011;43322;52.230;5.702;2023-07-28T03:02:00;32.92;;;19.58;;
23718;SDS011;43322;52.230;5.702;2023-07-28T03:04:27;43.08;;;21.33;;
23718;SDS011;43322;52.230;5.702;2023-07-28T03:06:53;34.92;;;20.75;;
23718;SDS011;43322;52.230;5.702;2023-07-28T03:09:22;48.67;;;22.25;;
23718;SDS011;43322;52.230;5.702;2023-07-28T03:11:49;42.50;;;21.70;;
23718;SDS011;43322;52.230;5.702;2023-07-28T03:14:15;37.45;;;20.60;;
23718;SDS011;43322;52.230;5.702;2023-07-28T03:16:42;38.60;;;21.38;;
23718;SDS011;43322;52.230;5.702;2023-07-28T03:19:09;35.25;;;19.33;;
23718;SDS011;43322;52.230;5.702;2023-07-28T03:21:35;42.90;;;21.75;;
23718;SDS011;43322;52.230;5.702;2023-07-28T03:24:02;37.72;;;19.70;;
23718;SDS011;43322;52.230;5.702;2023-07-28T03:26:30;41.08;;;20.90;;
23718;SDS011;43322;52.230;5.702;2023-07-28T03:28:57;41.60;;;21.98;;
23718;SDS011;43322;52.230;5.702;2023-07-28T03:31:24;43.03;;;21.85;;
23718;SDS011;43322;52.230;5.702;2023-07-28T03:33:50;52.25;;;23.00;;
23718;SDS011;43322;52.230;5.702;2023-07-28T03:36:17;43.55;;;22.45;;
23718;SDS011;43322;52.230;5.702;2023-07-28T03:38:44;53.33;;;25.42;;
23718;SDS011;43322;52.230;5.702;2023-07-28T03:41:11;50.10;;;24.30;;
23718;SDS011;43322;52.230;5.702;2023-07-28T03:43:39;44.28;;;23.33;;
23718;SDS011;43322;52.230;5.702;2023-07-28T03:46:07;47.25;;;23.25;;
23718;SDS011;43322;52.230;5.702;2023-07-28T03:48:33;52.17;;;24.77;;
23718;SDS011;43322;52.230;5.702;2023-07-28T03:51:00;47.15;;;23.38;;
23718;SDS011;43322;52.230;5.702;2023-07-28T03:53:26;55.95;;;25.77;;
23718;SDS011;43322;52.230;5.702;2023-07-28T03:55:53;47.35;;;25.15;;
23718;SDS011;43322;52.230;5.702;2023-07-28T03:58:23;55.67;;;26.10;;
23718;SDS011;43322;52.230;5.702;2023-07-28T04:00:51;57.42;;;25.33;;
23718;SDS011;43322;52.230;5.702;2023-07-28T04:03:18;64.32;;;26.52;;
23718;SDS011;43322;52.230;5.702;2023-07-28T04:05:45;60.03;;;26.60;;
23718;SDS011;43322;52.230;5.702;2023-07-28T04:08:12;56.47;;;26.40;;
23718;SDS011;43322;52.230;5.702;2023-07-28T04:10:39;49.20;;;24.92;;
23718;SDS011;43322;52.230;5.702;2023-07-28T04:13:05;67.28;;;27.65;;
23718;SDS011;43322;52.230;5.702;2023-07-28T04:15:32;56.83;;;26.25;;
23718;SDS011;43322;52.230;5.702;2023-07-28T04:18:00;46.03;;;24.00;;
23718;SDS011;43322;52.230;5.702;2023-07-28T04:20:26;55.05;;;26.90;;
23718;SDS011;43322;52.230;5.702;2023-07-28T04:22:53;60.28;;;27.85;;
23718;SDS011;43322;52.230;5.702;2023-07-28T04:25:20;68.85;;;28.60;;
23718;SDS011;43322;52.230;5.702;2023-07-28T04:27:46;53.13;;;25.45;;
23718;SDS011;43322;52.230;5.702;2023-07-28T04:30:13;66.68;;;28.33;;
23718;SDS011;43322;52.230;5.702;2023-07-28T04:32:39;60.72;;;27.25;;
23718;SDS011;43322;52.230;5.702;2023-07-28T04:35:07;69.90;;;29.60;;
23718;SDS011;43322;52.230;5.702;2023-07-28T04:37:34;55.97;;;25.92;;
23718;SDS011;43322;52.230;5.702;2023-07-28T04:40:01;63.80;;;28.95;;
23718;SDS011;43322;52.230;5.702;2023-07-28T04:42:28;75.45;;;29.40;;
23718;SDS011;43322;52.230;5.702;2023-07-28T04:44:55;65.63;;;26.92;;
23718;SDS011;43322;52.230;5.702;2023-07-28T04:47:21;68.38;;;29.35;;
23718;SDS011;43322;52.230;5.702;2023-07-28T04:49:48;67.40;;;28.08;;
23718;SDS011;43322;52.230;5.702;2023-07-28T04:52:16;58.20;;;27.30;;
23718;SDS011;43322;52.230;5.702;2023-07-28T04:54:42;60.00;;;28.45;;
23718;SDS011;43322;52.230;5.702;2023-07-28T04:57:09;67.38;;;29.00;;
23718;SDS011;43322;52.230;5.702;2023-07-28T04:59:36;69.50;;;29.15;;
23718;SDS011;43322;52.230;5.702;2023-07-28T05:02:02;79.28;;;31.25;;
23718;SDS011;43322;52.230;5.702;2023-07-28T05:04:29;66.43;;;28.98;;
23718;SDS011;43322;52.230;5.702;2023-07-28T05:06:56;64.43;;;28.05;;
23718;SDS011;43322;52.230;5.702;2023-07-28T05:09:24;70.03;;;28.83;;
23718;SDS011;43322;52.230;5.702;2023-07-28T05:11:53;67.68;;;27.67;;
23718;SDS011;43322;52.230;5.702;2023-07-28T05:14:19;69.22;;;28.20;;
23718;SDS011;43322;52.230;5.702;2023-07-28T05:16:46;76.18;;;30.17;;
23718;SDS011;43322;52.230;5.702;2023-07-28T05:19:13;66.75;;;29.52;;
23718;SDS011;43322;52.230;5.702;2023-07-28T05:21:39;70.28;;;28.60;;
23718;SDS011;43322;52.230;5.702;2023-07-28T05:24:06;69.65;;;28.80;;
23718;SDS011;43322;52.230;5.702;2023-07-28T05:26:34;74.32;;;29.40;;
23718;SDS011;43322;52.230;5.702;2023-07-28T05:29:01;81.63;;;31.27;;
23718;SDS011;43322;52.230;5.702;2023-07-28T05:31:27;77.90;;;29.55;;
23718;SDS011;43322;52.230;5.702;2023-07-28T05:33:54;66.28;;;28.33;;
23718;SDS011;43322;52.230;5.702;2023-07-28T05:36:20;84.82;;;31.17;;
23718;SDS011;43322;52.230;5.702;2023-07-28T05:38:47;89.28;;;31.67;;
23718;SDS011;43322;52.230;5.702;2023-07-28T05:41:14;75.72;;;30.15;;
23718;SDS011;43322;52.230;5.702;2023-07-28T05:43:42;83.35;;;31.45;;
23718;SDS011;43322;52.230;5.702;2023-07-28T05:46:09;78.13;;;30.67;;
23718;SDS011;43322;52.230;5.702;2023-07-28T05:48:35;78.78;;;29.50;;
23718;SDS011;43322;52.230;5.702;2023-07-28T05:51:02;83.05;;;29.92;;
23718;SDS011;43322;52.230;5.702;2023-07-28T05:53:29;73.53;;;29.98;;
23718;SDS011;43322;52.230;5.702;2023-07-28T05:55:55;77.47;;;29.95;;
23718;SDS011;43322;52.230;5.702;2023-07-28T05:58:22;74.20;;;29.90;;
23718;SDS011;43322;52.230;5.702;2023-07-28T06:00:50;85.28;;;30.02;;
23718;SDS011;43322;52.230;5.702;2023-07-28T06:03:17;58.88;;;26.23;;
23718;SDS011;43322;52.230;5.702;2023-07-28T06:05:44;62.92;;;26.77;;
23718;SDS011;43322;52.230;5.702;2023-07-28T06:08:10;67.45;;;27.80;;
23718;SDS011;43322;52.230;5.702;2023-07-28T06:10:37;70.75;;;27.58;;
23718;SDS011;43322;52.230;5.702;2023-07-28T06:13:04;65.30;;;27.00;;
23718;SDS011;43322;52.230;5.702;2023-07-28T06:15:31;73.93;;;27.60;;
23718;SDS011;43322;52.230;5.702;2023-07-28T06:18:01;61.15;;;27.05;;
23718;SDS011;43322;52.230;5.702;2023-07-28T06:20:28;58.75;;;24.90;;
23718;SDS011;43322;52.230;5.702;2023-07-28T06:22:55;66.28;;;26.98;;
23718;SDS011;43322;52.230;5.702;2023-07-28T06:25:21;67.25;;;28.05;;
23718;SDS011;43322;52.230;5.702;2023-07-28T06:27:48;54.08;;;25.30;;
23718;SDS011;43322;52.230;5.702;2023-07-28T06:30:14;61.67;;;26.65;;
23718;SDS011;43322;52.230;5.702;2023-07-28T06:32:41;58.10;;;25.30;;
23718;SDS011;43322;52.230;5.702;2023-07-28T06:35:09;55.40;;;25.83;;
23718;SDS011;43322;52.230;5.702;2023-07-28T06:37:37;63.30;;;26.63;;
23718;SDS011;43322;52.230;5.702;2023-07-28T06:40:04;59.38;;;25.13;;
23718;SDS011;43322;52.230;5.702;2023-07-28T06:42:32;47.25;;;24.35;;
23718;SDS011;43322;52.230;5.702;2023-07-28T06:44:59;55.08;;;24.60;;
23718;SDS011;43322;52.230;5.702;2023-07-28T06:47:27;55.05;;;24.92;;
23718;SDS011;43322;52.230;5.702;2023-07-28T06:49:54;50.97;;;25.02;;
23718;SDS011;43322;52.230;5.702;2023-07-28T06:52:22;52.03;;;22.33;;
23718;SDS011;43322;52.230;5.702;2023-07-28T06:54:49;49.92;;;23.40;;
23718;SDS011;43322;52.230;5.702;2023-07-28T06:57:15;39.67;;;21.92;;
23718;SDS011;43322;52.230;5.702;2023-07-28T06:59:42;45.50;;;21.35;;
23718;SDS011;43322;52.230;5.702;2023-07-28T07:02:09;43.53;;;20.95;;
23718;SDS011;43322;52.230;5.702;2023-07-28T07:04:36;37.95;;;19.85;;
23718;SDS011;43322;52.230;5.702;2023-07-28T07:07:03;44.00;;;22.60;;
23718;SDS011;43322;52.230;5.702;2023-07-28T07:09:31;41.45;;;20.45;;
23718;SDS011;43322;52.230;5.702;2023-07-28T07:11:58;38.50;;;20.00;;
23718;SDS011;43322;52.230;5.702;2023-07-28T07:14:25;37.28;;;21.08;;
23718;SDS011;43322;52.230;5.702;2023-07-28T07:16:52;39.58;;;21.27;;
23718;SDS011;43322;52.230;5.702;2023-07-28T07:19:18;33.58;;;19.50;;
23718;SDS011;43322;52.230;5.702;2023-07-28T07:21:45;37.97;;;21.02;;
23718;SDS011;43322;52.230;5.702;2023-07-28T07:24:12;35.83;;;20.35;;
23718;SDS011;43322;52.230;5.702;2023-07-28T07:26:40;46.42;;;21.50;;
23718;SDS011;43322;52.230;5.702;2023-07-28T07:29:07;31.67;;;19.33;;
23718;SDS011;43322;52.230;5.702;2023-07-28T07:31:34;32.95;;;18.25;;
23718;SDS011;43322;52.230;5.702;2023-07-28T07:34:01;33.97;;;18.63;;
23718;SDS011;43322;52.230;5.702;2023-07-28T07:36:29;35.30;;;20.70;;
23718;SDS011;43322;52.230;5.702;2023-07-28T07:38:56;38.90;;;21.70;;
23718;SDS011;43322;52.230;5.702;2023-07-28T07:41:23;36.33;;;19.85;;
23718;SDS011;43322;52.230;5.702;2023-07-28T07:43:52;41.40;;;22.67;;
23718;SDS011;43322;52.230;5.702;2023-07-28T07:46:20;36.72;;;22.02;;
23718;SDS011;43322;52.230;5.702;2023-07-28T07:48:46;37.08;;;19.98;;
23718;SDS011;43322;52.230;5.702;2023-07-28T07:51:14;36.45;;;20.83;;
23718;SDS011;43322;52.230;5.702;2023-07-28T07:53:41;31.65;;;20.05;;
23718;SDS011;43322;52.230;5.702;2023-07-28T07:56:08;34.97;;;20.52;;
23718;SDS011;43322;52.230;5.702;2023-07-28T07:58:35;39.63;;;21.67;;
23718;SDS011;43322;52.230;5.702;2023-07-28T08:01:03;36.20;;;21.00;;
23718;SDS011;43322;52.230;5.702;2023-07-28T08:03:30;38.47;;;22.00;;
23718;SDS011;43322;52.230;5.702;2023-07-28T08:05:57;37.92;;;22.77;;
23718;SDS011;43322;52.230;5.702;2023-07-28T08:08:24;41.92;;;22.77;;
23718;SDS011;43322;52.230;5.702;2023-07-28T08:10:52;34.60;;;20.52;;
23718;SDS011;43322;52.230;5.702;2023-07-28T08:13:18;44.63;;;23.20;;
23718;SDS011;43322;52.230;5.702;2023-07-28T08:15:45;37.03;;;22.23;;
23718;SDS011;43322;52.230;5.702;2023-07-28T08:18:13;37.85;;;23.20;;
23718;SDS011;43322;52.230;5.702;2023-07-28T08:20:40;42.03;;;24.58;;
23718;SDS011;43322;52.230;5.702;2023-07-28T08:23:07;35.63;;;21.13;;
23718;SDS011;43322;52.230;5.702;2023-07-28T08:25:34;34.03;;;22.63;;
23718;SDS011;43322;52.230;5.702;2023-07-28T08:28:01;41.38;;;25.50;;
23718;SDS011;43322;52.230;5.702;2023-07-28T08:30:27;33.33;;;23.88;;
23718;SDS011;43322;52.230;5.702;2023-07-28T08:32:54;40.40;;;24.05;;
23718;SDS011;43322;52.230;5.702;2023-07-28T08:35:22;43.33;;;23.25;;
23718;SDS011;43322;52.230;5.702;2023-07-28T08:37:49;41.63;;;23.27;;
23718;SDS011;43322;52.230;5.702;2023-07-28T08:40:16;36.25;;;22.73;;
23718;SDS011;43322;52.230;5.702;2023-07-28T08:42:42;39.22;;;23.02;;
23718;SDS011;43322;52.230;5.702;2023-07-28T08:45:10;35.03;;;20.50;;
23718;SDS011;43322;52.230;5.702;2023-07-28T08:47:38;33.35;;;20.98;;
23718;SDS011;43322;52.230;5.702;2023-07-28T08:50:05;30.60;;;20.90;;
23718;SDS011;43322;52.230;5.702;2023-07-28T08:52:33;26.95;;;19.85;;
23718;SDS011;43322;52.230;5.702;2023-07-28T08:55:00;27.25;;;18.10;;
23718;SDS011;43322;52.230;5.702;2023-07-28T08:57:27;32.80;;;19.52;;
23718;SDS011;43322;52.230;5.702;2023-07-28T08:59:54;32.05;;;20.08;;
23718;SDS011;43322;52.230;5.702;2023-07-28T09:02:21;25.58;;;17.98;;
23718;SDS011;43322;52.230;5.702;2023-07-28T09:04:48;25.23;;;17.85;;
23718;SDS011;43322;52.230;5.702;2023-07-28T09:07:15;24.45;;;16.33;;
23718;SDS011;43322;52.230;5.702;2023-07-28T09:09:43;23.95;;;16.95;;
23718;SDS011;43322;52.230;5.702;2023-07-28T09:12:11;22.83;;;16.83;;
23718;SDS011;43322;52.230;5.702;2023-07-28T09:14:38;19.88;;;14.60;;
23718;SDS011;43322;52.230;5.702;2023-07-28T09:17:06;20.20;;;15.88;;
23718;SDS011;43322;52.230;5.702;2023-07-28T09:19:33;20.17;;;13.80;;
23718;SDS011;43322;52.230;5.702;2023-07-28T09:22:01;19.55;;;14.05;;
23718;SDS011;43322;52.230;5.702;2023-07-28T09:24:30;19.40;;;13.75;;
23718;SDS011;43322;52.230;5.702;2023-07-28T09:26:59;18.30;;;12.23;;
23718;SDS011;43322;52.230;5.702;2023-07-28T09:29:27;17.70;;;12.82;;
23718;SDS011;43322;52.230;5.702;2023-07-28T09:31:54;11.88;;;9.63;;
23718;SDS011;43322;52.230;5.702;2023-07-28T09:34:29;11.80;;;8.85;;
23718;SDS011;43322;52.230;5.702;2023-07-28T09:36:55;12.25;;;7.30;;
23718;SDS011;43322;52.230;5.702;2023-07-28T09:39:23;12.85;;;6.82;;
23718;SDS011;43322;52.230;5.702;2023-07-28T09:41:51;9.00;;;6.40;;
23718;SDS011;43322;52.230;5.702;2023-07-28T09:44:23;6.82;;;6.00;;
23718;SDS011;43322;52.230;5.702;2023-07-28T09:46:50;7.40;;;5.32;;
23718;SDS011;43322;52.230;5.702;2023-07-28T09:49:20;9.40;;;4.82;;
23718;SDS011;43322;52.230;5.702;2023-07-28T09:51:53;7.95;;;4.60;;
23718;SDS011;43322;52.230;5.702;2023-07-28T09:54:23;6.97;;;4.50;;
23718;SDS011;43322;52.230;5.702;2023-07-28T09:56:54;6.45;;;5.00;;
23718;SDS011;43322;52.230;5.702;2023-07-28T09:59:26;6.43;;;4.22;;
23718;SDS011;43322;52.230;5.702;2023-07-28T10:01:55;6.65;;;4.63;;
23718;SDS011;43322;52.230;5.702;2023-07-28T10:04:23;5.47;;;4.20;;
23718;SDS011;43322;52.230;5.702;2023-07-28T10:06:49;5.72;;;4.43;;
23718;SDS011;43322;52.230;5.702;2023-07-28T10:09:21;6.72;;;3.75;;
23718;SDS011;43322;52.230;5.702;2023-07-28T10:11:49;6.55;;;3.60;;
23718;SDS011;43322;52.230;5.702;2023-07-28T10:14:26;4.88;;;3.70;;
23718;SDS011;43322;52.230;5.702;2023-07-28T10:16:54;4.68;;;3.67;;
23718;SDS011;43322;52.230;5.702;2023-07-28T10:19:21;4.55;;;3.63;;
23718;SDS011;43322;52.230;5.702;2023-07-28T10:21:47;6.53;;;3.97;;
23718;SDS011;43322;52.230;5.702;2023-07-28T10:24:14;4.38;;;3.67;;
23718;SDS011;43322;52.230;5.702;2023-07-28T10:26:41;4.82;;;3.50;;
23718;SDS011;43322;52.230;5.702;2023-07-28T10:29:09;7.18;;;3.97;;
23718;SDS011;43322;52.230;5.702;2023-07-28T10:31:39;7.40;;;4.40;;
23718;SDS011;43322;52.230;5.702;2023-07-28T10:34:16;5.47;;;3.80;;
23718;SDS011;43322;52.230;5.702;2023-07-28T10:36:43;4.50;;;3.88;;
23718;SDS011;43322;52.230;5.702;2023-07-28T10:39:12;3.78;;;3.30;;
23718;SDS011;43322;52.230;5.702;2023-07-28T10:42:00;4.13;;;3.28;;
23718;SDS011;43322;52.230;5.702;2023-07-28T10:44:29;3.25;;;2.85;;
23718;SDS011;43322;52.230;5.702;2023-07-28T10:46:57;4.88;;;2.92;;
23718;SDS011;43322;52.230;5.702;2023-07-28T10:49:24;5.07;;;3.20;;
23718;SDS011;43322;52.230;5.702;2023-07-28T10:51:51;8.38;;;2.70;;
23718;SDS011;43322;52.230;5.702;2023-07-28T10:54:18;5.07;;;3.08;;
23718;SDS011;43322;52.230;5.702;2023-07-28T10:56:45;4.93;;;3.13;;
23718;SDS011;43322;52.230;5.702;2023-07-28T10:59:12;3.10;;;2.90;;
23718;SDS011;43322;52.230;5.702;2023-07-28T11:01:39;3.30;;;3.00;;
23718;SDS011;43322;52.230;5.702;2023-07-28T11:04:09;4.72;;;3.33;;
23718;SDS011;43322;52.230;5.702;2023-07-28T11:06:37;3.42;;;3.15;;
23718;SDS011;43322;52.230;5.702;2023-07-28T11:09:05;6.20;;;4.10;;
23718;SDS011;43322;52.230;5.702;2023-07-28T11:11:33;4.03;;;3.72;;
23718;SDS011;43322;52.230;5.702;2023-07-28T11:14:01;3.88;;;3.58;;
23718;SDS011;43322;52.230;5.702;2023-07-28T11:16:28;3.78;;;3.45;;
23718;SDS011;43322;52.230;5.702;2023-07-28T11:18:55;4.10;;;3.80;;
23718;SDS011;43322;52.230;5.702;2023-07-28T11:21:23;4.20;;;3.90;;
23718;SDS011;43322;52.230;5.702;2023-07-28T11:23:51;4.65;;;4.10;;
23718;SDS011;43322;52.230;5.702;2023-07-28T11:26:18;5.57;;;4.55;;
23718;SDS011;43322;52.230;5.702;2023-07-28T11:28:45;4.75;;;4.05;;
23718;SDS011;43322;52.230;5.702;2023-07-28T11:31:12;4.43;;;4.10;;
23718;SDS011;43322;52.230;5.702;2023-07-28T11:33:39;4.88;;;4.40;;
23718;SDS011;43322;52.230;5.702;2023-07-28T11:36:06;5.40;;;3.83;;
23718;SDS011;43322;52.230;5.702;2023-07-28T11:38:34;5.60;;;3.53;;
23718;SDS011;43322;52.230;5.702;2023-07-28T11:41:02;5.60;;;4.03;;
23718;SDS011;43322;52.230;5.702;2023-07-28T11:43:29;5.30;;;4.35;;
23718;SDS011;43322;52.230;5.702;2023-07-28T11:45:56;5.10;;;4.00;;
23718;SDS011;43322;52.230;5.702;2023-07-28T11:48:23;8.77;;;5.28;;
23718;SDS011;43322;52.230;5.702;2023-07-28T11:50:55;7.15;;;4.72;;
23718;SDS011;43322;52.230;5.702;2023-07-28T11:53:22;4.30;;;4.00;;
23718;SDS011;43322;52.230;5.702;2023-07-28T11:55:50;4.53;;;4.07;;
23718;SDS011;43322;52.230;5.702;2023-07-28T11:58:16;5.90;;;4.95;;
23718;SDS011;43322;52.230;5.702;2023-07-28T12:00:45;5.35;;;4.45;;
23718;SDS011;43322;52.230;5.702;2023-07-28T12:03:12;7.25;;;6.10;;
23718;SDS011;43322;52.230;5.702;2023-07-28T12:05:40;6.57;;;5.93;;
23718;SDS011;43322;52.230;5.702;2023-07-28T12:08:08;10.25;;;5.63;;
23718;SDS011;43322;52.230;5.702;2023-07-28T12:10:36;5.55;;;5.05;;
23718;SDS011;43322;52.230;5.702;2023-07-28T12:13:04;6.68;;;5.40;;
23718;SDS011;43322;52.230;5.702;2023-07-28T12:15:32;7.03;;;5.68;;
23718;SDS011;43322;52.230;5.702;2023-07-28T12:18:09;5.20;;;4.68;;
23718;SDS011;43322;52.230;5.702;2023-07-28T12:20:38;5.40;;;5.00;;
23718;SDS011;43322;52.230;5.702;2023-07-28T12:23:06;5.05;;;4.65;;
23718;SDS011;43322;52.230;5.702;2023-07-28T12:25:34;5.18;;;4.70;;
23718;SDS011;43322;52.230;5.702;2023-07-28T12:28:02;5.82;;;5.30;;
23718;SDS011;43322;52.230;5.702;2023-07-28T12:30:30;5.45;;;4.93;;
23718;SDS011;43322;52.230;5.702;2023-07-28T12:32:57;5.13;;;4.72;;
23718;SDS011;43322;52.230;5.702;2023-07-28T12:35:24;5.75;;;5.22;;
23718;SDS011;43322;52.230;5.702;2023-07-28T12:37:55;6.15;;;5.63;;
23718;SDS011;43322;52.230;5.702;2023-07-28T12:40:25;5.53;;;4.95;;
23718;SDS011;43322;52.230;5.702;2023-07-28T12:42:52;6.38;;;5.80;;
23718;SDS011;43322;52.230;5.702;2023-07-28T12:45:19;6.28;;;5.38;;
23718;SDS011;43322;52.230;5.702;2023-07-28T12:47:48;6.82;;;6.10;;
23718;SDS011;43322;52.230;5.702;2023-07-28T12:50:15;5.25;;;4.78;;
23718;SDS011;43322;52.230;5.702;2023-07-28T12:52:41;6.13;;;5.55;;
23718;SDS011;43322;52.230;5.702;2023-07-28T12:55:08;5.72;;;5.22;;
23718;SDS011;43322;52.230;5.702;2023-07-28T12:57:35;5.65;;;5.15;;
23718;SDS011;43322;52.230;5.702;2023-07-28T13:00:01;6.68;;;5.88;;
23718;SDS011;43322;52.230;5.702;2023-07-28T13:02:33;6.05;;;5.40;;
23718;SDS011;43322;52.230;5.702;2023-07-28T13:05:01;7.18;;;5.25;;
23718;SDS011;43322;52.230;5.702;2023-07-28T13:07:28;5.45;;;5.05;;
23718;SDS011;43322;52.230;5.702;2023-07-28T13:09:55;6.45;;;5.93;;
23718;SDS011;43322;52.230;5.702;2023-07-28T13:12:21;8.05;;;5.57;;
23718;SDS011;43322;52.230;5.702;2023-07-28T13:14:48;7.70;;;5.32;;
23718;SDS011;43322;52.230;5.702;2023-07-28T13:17:15;5.03;;;4.28;;
23718;SDS011;43322;52.230;5.702;2023-07-28T13:19:42;5.28;;;4.75;;
23718;SDS011;43322;52.230;5.702;2023-07-28T13:22:10;5.28;;;4.88;;
23718;SDS011;43322;52.230;5.702;2023-07-28T13:24:36;5.05;;;4.75;;
23718;SDS011;43322;52.230;5.702;2023-07-28T13:27:03;5.78;;;4.90;;
23718;SDS011;43322;52.230;5.702;2023-07-28T13:29:30;4.68;;;4.28;;
23718;SDS011;43322;52.230;5.702;2023-07-28T13:31:57;5.30;;;4.25;;
23718;SDS011;43322;52.230;5.702;2023-07-28T13:34:25;4.88;;;4.50;;
23718;SDS011;43322;52.230;5.702;2023-07-28T13:36:53;4.32;;;3.90;;
23718;SDS011;43322;52.230;5.702;2023-07-28T13:39:21;4.82;;;4.30;;
23718;SDS011;43322;52.230;5.702;2023-07-28T13:41:48;4.05;;;3.85;;
23718;SDS011;43322;52.230;5.702;2023-07-28T13:44:15;4.15;;;3.85;;
23718;SDS011;43322;52.230;5.702;2023-07-28T13:46:42;4.85;;;4.38;;
23718;SDS011;43322;52.230;5.702;2023-07-28T13:49:08;4.65;;;4.28;;
23718;SDS011;43322;52.230;5.702;2023-07-28T13:51:35;5.43;;;4.28;;
23718;SDS011;43322;52.230;5.702;2023-07-28T13:54:02;5.22;;;3.97;;
23718;SDS011;43322;52.230;5.702;2023-07-28T13:56:30;4.20;;;3.85;;
23718;SDS011;43322;52.230;5.702;2023-07-28T13:58:57;4.93;;;3.95;;
23718;SDS011;43322;52.230;5.702;2023-07-28T14:01:23;5.07;;;3.60;;
23718;SDS011;43322;52.230;5.702;2023-07-28T14:03:50;3.30;;;3.15;;
23718;SDS011;43322;52.230;5.702;2023-07-28T14:06:16;3.35;;;3.15;;
23718;SDS011;43322;52.230;5.702;2023-07-28T14:08:43;3.88;;;3.58;;
23718;SDS011;43322;52.230;5.702;2023-07-28T14:11:10;9.07;;;3.90;;
23718;SDS011;43322;52.230;5.702;2023-07-28T14:13:39;4.95;;;3.97;;
23718;SDS011;43322;52.230;5.702;2023-07-28T14:16:05;4.03;;;3.72;;
23718;SDS011;43322;52.230;5.702;2023-07-28T14:18:34;4.28;;;3.97;;
23718;SDS011;43322;52.230;5.702;2023-07-28T14:21:01;4.70;;;4.15;;
23718;SDS011;43322;52.230;5.702;2023-07-28T14:23:28;5.03;;;4.68;;
23718;SDS011;43322;52.230;5.702;2023-07-28T14:25:55;4.20;;;3.83;;
23718;SDS011;43322;52.230;5.702;2023-07-28T14:28:22;4.30;;;3.80;;
23718;SDS011;43322;52.230;5.702;2023-07-28T14:30:51;3.95;;;3.70;;